Time;durP1;ratioP1;P1;durP2;ratioP2;P2;SDS_P1;SDS_P2;PMS_P1;PMS_P2;Temp;Humidity;BMP_temperature;BMP_pressure;BME280_temperature;BME280_humidity;BME280_pressure;Samples;Min_cycle;Max_cycle;Signal;HPM_P1;HPM_P2
2024/01/25 00:00:04;;;;;;;22.40;15.00;;;;;;;6.91;55.82;100868.48;109370;1254;74879;-58
2024/01/25 00:02:34;;;;;;;27.50;15.30;;;;;;;6.90;55.75;100868.14;109333;1254;60292;-60
2024/01/25 00:05:02;;;;;;;26.40;15.20;;;;;;;6.90;55.75;100850.70;109107;1253;61274;-60
2024/01/25 00:07:30;;;;;;;25.80;15.70;;;;;;;6.90;55.57;100851.73;109347;1256;74865;-60
2024/01/25 00:09:58;;;;;;;23.00;15.40;;;;;;;6.89;55.54;100845.63;109375;1254;71202;-60
2024/01/25 00:12:25;;;;;;;25.00;15.40;;;;;;;6.87;55.56;100839.86;109378;1254;74865;-60
2024/01/25 00:14:53;;;;;;;26.60;16.50;;;;;;;6.86;55.42;100829.91;109365;1255;59508;-59
2024/01/25 00:17:21;;;;;;;24.80;16.50;;;;;;;6.84;55.56;100831.83;109360;1254;59296;-58
2024/01/25 00:19:49;;;;;;;28.10;16.30;;;;;;;6.82;55.56;100828.50;109396;1254;75356;-59
2024/01/25 00:22:17;;;;;;;26.80;16.40;;;;;;;6.79;55.65;100821.14;109379;1254;73129;-59
2024/01/25 00:24:44;;;;;;;28.70;16.00;;;;;;;6.76;55.77;100824.42;109372;1254;72784;-59
2024/01/25 00:27:12;;;;;;;26.90;16.00;;;;;;;6.73;55.76;100811.51;109033;1254;378500;-60
2024/01/25 00:29:40;;;;;;;26.40;16.90;;;;;;;6.71;55.86;100799.10;109298;1253;58845;-59
2024/01/25 00:32:07;;;;;;;27.00;16.00;;;;;;;6.69;55.79;100802.23;109344;1254;73908;-58
2024/01/25 00:34:35;;;;;;;25.80;16.70;;;;;;;6.69;55.74;100798.91;109155;1253;70748;-61
2024/01/25 00:37:03;;;;;;;27.30;16.70;;;;;;;6.67;55.81;100801.68;109339;1254;73151;-61
2024/01/25 00:39:31;;;;;;;23.80;15.70;;;;;;;6.67;55.92;100799.23;109339;1254;58609;-61
2024/01/25 00:42:04;;;;;;;23.30;15.50;;;;;;;6.66;55.90;100797.67;109336;1254;60065;-61
2024/01/25 00:44:32;;;;;;;24.40;16.10;;;;;;;6.66;55.84;100787.38;109383;1254;72713;-60
2024/01/25 00:47:00;;;;;;;26.00;17.30;;;;;;;6.64;55.93;100774.29;109119;1253;72879;-61
2024/01/25 00:49:28;;;;;;;25.70;16.50;;;;;;;6.61;55.98;100781.77;109184;1254;72733;-61
2024/01/25 00:51:59;;;;;;;23.40;15.80;;;;;;;6.59;56.08;100779.13;109147;1254;59373;-60
2024/01/25 00:54:27;;;;;;;26.20;16.60;;;;;;;6.59;56.19;100785.23;109353;1254;58935;-60
2024/01/25 00:56:55;;;;;;;27.50;17.60;;;;;;;6.59;56.09;100790.64;109361;1254;72633;-59
2024/01/25 00:59:23;;;;;;;25.40;17.30;;;;;;;6.59;55.99;100783.31;109353;1258;71551;-58
2024/01/25 01:01:52;;;;;;;28.20;16.50;;;;;;;6.59;56.19;100785.41;109358;1254;72765;-58
2024/01/25 01:04:20;;;;;;;26.50;17.30;;;;;;;6.60;56.05;100793.78;109218;1254;58197;-58
2024/01/25 01:06:48;;;;;;;25.10;16.90;;;;;;;6.61;56.04;100796.05;109341;1253;58831;-59
2024/01/25 01:09:17;;;;;;;27.90;17.60;;;;;;;6.60;56.02;100796.40;109234;1254;74346;-58
2024/01/25 01:11:45;;;;;;;28.80;16.90;;;;;;;6.59;56.00;100787.15;109093;1254;72832;-58
2024/01/25 01:14:13;;;;;;;26.70;16.70;;;;;;;6.57;56.11;100782.60;109338;1254;72895;-58
2024/01/25 01:16:40;;;;;;;26.60;17.50;;;;;;;6.56;56.10;100787.11;109321;1254;59505;-58
2024/01/25 01:19:08;;;;;;;24.40;16.70;;;;;;;6.56;56.19;100789.56;109336;1253;59195;-58
2024/01/25 01:21:36;;;;;;;26.50;17.30;;;;;;;6.57;56.16;100788.88;109337;1254;73901;-58
2024/01/25 01:24:04;;;;;;;30.90;17.40;;;;;;;6.58;56.19;100781.23;109385;1254;72945;-58
2024/01/25 01:26:31;;;;;;;27.20;17.50;;;;;;;6.58;56.10;100767.27;109344;1254;71361;-58
2024/01/25 01:28:59;;;;;;;28.50;18.80;;;;;;;6.57;56.13;100759.95;109375;1254;58249;-59
2024/01/25 01:31:26;;;;;;;27.10;17.00;;;;;;;6.57;56.22;100761.67;109347;1253;60102;-58
2024/01/25 01:33:54;;;;;;;29.40;18.90;;;;;;;6.56;56.26;100751.92;109515;1253;73908;-59
2024/01/25 01:36:22;;;;;;;31.90;20.10;;;;;;;6.57;56.22;100751.76;109387;1254;71622;-58
2024/01/25 01:38:50;;;;;;;30.60;19.00;;;;;;;6.58;56.21;100736.42;109078;1254;71770;-59
2024/01/25 01:41:18;;;;;;;30.60;19.20;;;;;;;6.58;56.12;100730.67;109368;1253;59406;-57
2024/01/25 01:43:45;;;;;;;26.40;18.60;;;;;;;6.56;56.28;100731.88;109465;1254;60104;-57
2024/01/25 01:46:34;;;;;;;28.10;17.70;;;;;;;6.55;56.38;100731.68;109366;1254;73922;-57
2024/01/25 01:49:02;;;;;;;30.00;17.60;;;;;;;6.55;56.47;100737.08;109208;1254;73147;-59
2024/01/25 01:51:31;;;;;;;29.80;18.70;;;;;;;6.55;56.60;100726.80;109319;1254;73190;-59
2024/01/25 01:54:02;;;;;;;33.80;20.70;;;;;;;6.54;56.59;100721.05;109367;1254;59322;-59
2024/01/25 01:56:30;;;;;;;32.30;19.60;;;;;;;6.54;56.60;100714.25;109401;1253;61415;-61
2024/01/25 01:58:58;;;;;;;34.00;19.80;;;;;;;6.51;56.62;100709.17;109372;1253;73928;-59
2024/01/25 02:01:25;;;;;;;34.20;19.10;;;;;;;6.50;56.69;100704.48;109269;1253;71298;-58
2024/01/25 02:03:53;;;;;;;33.70;19.40;;;;;;;6.50;56.81;100710.38;109316;1253;72729;-58
2024/01/25 02:06:23;;;;;;;26.70;17.70;;;;;;;6.50;56.86;100707.95;109348;1253;59288;-58
2024/01/25 02:08:53;;;;;;;29.10;19.80;;;;;;;6.51;56.82;100705.16;109382;1254;60235;-57
2024/01/25 02:11:20;;;;;;;32.40;19.60;;;;;;;6.49;56.75;100707.07;109045;1254;72951;-58
2024/01/25 02:13:48;;;;;;;32.20;20.00;;;;;;;6.48;56.87;100700.09;109374;1254;72833;-57
2024/01/25 02:16:15;;;;;;;32.80;19.00;;;;;;;6.47;57.01;100698.34;109315;1253;71399;-57
2024/01/25 02:18:44;;;;;;;33.00;19.90;;;;;;;6.47;57.08;100692.42;109301;1254;58249;-57
2024/01/25 02:21:11;;;;;;;30.10;18.60;;;;;;;6.46;57.11;100688.06;109477;1254;60065;-56
2024/01/25 02:23:39;;;;;;;31.40;19.40;;;;;;;6.46;57.20;100687.02;109355;1255;72347;-57
2024/01/25 02:26:07;;;;;;;25.80;17.40;;;;;;;6.44;57.34;100679.16;109362;1253;72938;-57
2024/01/25 02:28:34;;;;;;;33.30;19.40;;;;;;;6.43;57.41;100677.40;109348;1254;72743;-57
2024/01/25 02:31:02;;;;;;;28.80;18.20;;;;;;;6.42;57.47;100675.48;109156;1259;58654;-56
2024/01/25 02:33:30;;;;;;;28.60;17.70;;;;;;;6.42;57.61;100673.91;109172;1254;58785;-58
2024/01/25 02:35:58;;;;;;;28.20;17.40;;;;;;;6.43;57.85;100665.39;109455;1254;72642;-59
2024/01/25 02:38:26;;;;;;;28.00;18.00;;;;;;;6.43;57.87;100657.71;109206;1254;71576;-58
2024/01/25 02:40:53;;;;;;;30.50;19.40;;;;;;;6.41;58.04;100655.08;109289;1254;71735;-59
2024/01/25 02:43:22;;;;;;;29.20;18.20;;;;;;;6.42;58.16;100651.95;109025;1260;59335;-58
2024/01/25 02:45:50;;;;;;;31.20;17.90;;;;;;;6.42;58.28;100649.88;109103;1257;60068;-59
2024/01/25 02:48:18;;;;;;;29.50;17.90;;;;;;;6.43;58.40;100643.08;109368;1254;73948;-58
2024/01/25 02:50:46;;;;;;;29.30;18.00;;;;;;;6.45;58.51;100641.35;109392;1258;72825;-59
2024/01/25 02:53:14;;;;;;;28.70;18.00;;;;;;;6.45;58.58;100641.02;109328;1254;71530;-58
2024/01/25 02:55:41;;;;;;;27.00;17.40;;;;;;;6.46;58.55;100636.14;109023;1254;58406;-58
2024/01/25 02:58:09;;;;;;;29.20;18.20;;;;;;;6.46;58.70;100630.38;109336;1254;58808;-59
2024/01/25 03:00:36;;;;;;;29.00;18.30;;;;;;;6.45;58.77;100632.12;109371;1254;72800;-57
2024/01/25 03:03:04;;;;;;;25.80;16.40;;;;;;;6.46;58.84;100627.07;109370;1253;71785;-58
2024/01/25 03:05:32;;;;;;;29.70;18.40;;;;;;;6.44;58.92;100621.84;109353;1254;71558;-59
2024/01/25 03:08:00;;;;;;;28.10;18.40;;;;;;;6.42;59.10;100621.98;109326;1254;59331;-59
2024/01/25 03:10:29;;;;;;;27.60;17.70;;;;;;;6.42;59.27;100624.77;109467;1254;58800;-59
2024/01/25 03:12:56;;;;;;;28.10;17.80;;;;;;;6.43;59.28;100619.38;109350;1253;73929;-58
2024/01/25 03:15:24;;;;;;;26.80;16.10;;;;;;;6.42;59.36;100617.11;109092;1253;72829;-59
2024/01/25 03:17:51;;;;;;;28.90;18.40;;;;;;;6.42;59.41;100617.27;109363;1254;72722;-59
2024/01/25 03:20:21;;;;;;;28.40;17.20;;;;;;;6.42;59.56;100618.49;109323;1255;58241;-58
2024/01/25 03:22:49;;;;;;;25.80;17.40;;;;;;;6.44;59.74;100616.60;109339;1254;60099;-58
2024/01/25 03:25:16;;;;;;;30.00;19.00;;;;;;;6.46;59.89;100612.41;109408;1254;73957;-58
2024/01/25 03:27:44;;;;;;;29.80;17.70;;;;;;;6.48;60.05;100609.48;109369;1254;72804;-59
2024/01/25 03:30:12;;;;;;;30.00;18.30;;;;;;;6.50;60.18;100616.63;109488;1253;72361;-58
2024/01/25 03:32:40;;;;;;;26.60;16.40;;;;;;;6.52;60.41;100616.13;109342;1254;58728;-57
2024/01/25 03:35:08;;;;;;;25.20;16.40;;;;;;;6.54;60.51;100611.25;109336;1254;58798;-58
2024/01/25 03:37:36;;;;;;;25.50;16.30;;;;;;;6.54;60.70;100614.74;109338;1254;72821;-58
2024/01/25 03:40:04;;;;;;;27.10;18.60;;;;;;;6.55;60.88;100613.36;109381;1252;71643;-59
2024/01/25 03:42:32;;;;;;;25.80;15.90;;;;;;;6.57;61.08;100606.76;109165;1253;72648;-59
2024/01/25 03:45:00;;;;;;;25.70;16.80;;;;;;;6.59;61.16;100600.48;109305;1253;59356;-59
2024/01/25 03:47:27;;;;;;;27.90;17.10;;;;;;;6.62;61.22;100594.39;109107;1253;58797;-58
2024/01/25 03:49:55;;;;;;;29.10;16.70;;;;;;;6.64;61.41;100592.84;109320;1253;74036;-59
2024/01/25 03:52:23;;;;;;;27.80;17.30;;;;;;;6.65;61.49;100593.02;109381;1254;72855;-60
2024/01/25 03:54:51;;;;;;;22.40;16.00;;;;;;;6.67;61.48;100584.84;109298;1254;72745;-59
2024/01/25 03:57:20;;;;;;;25.50;16.10;;;;;;;6.69;61.55;100581.20;109270;1254;58649;-60
2024/01/25 03:59:47;;;;;;;25.60;17.10;;;;;;;6.70;61.51;100571.10;109341;1252;58880;-61
2024/01/25 04:02:15;;;;;;;27.40;18.40;;;;;;;6.71;61.58;100567.79;109372;1254;73867;-60
2024/01/25 04:04:43;;;;;;;27.00;17.90;;;;;;;6.69;61.57;100570.39;109389;1254;72982;-59
2024/01/25 04:07:10;;;;;;;24.70;16.40;;;;;;;6.67;61.65;100563.40;109366;1254;72720;-59
2024/01/25 04:09:40;;;;;;;27.80;17.70;;;;;;;6.67;61.71;100557.48;109027;1255;58192;-57
2024/01/25 04:12:07;;;;;;;25.50;16.40;;;;;;;6.67;61.75;100556.78;109181;1253;60561;-59
2024/01/25 04:14:35;;;;;;;25.90;16.50;;;;;;;6.66;61.85;100551.72;109341;1254;72599;-59
2024/01/25 04:17:03;;;;;;;28.00;16.40;;;;;;;6.66;61.86;100558.52;109371;1254;72707;-58
2024/01/25 04:19:30;;;;;;;27.70;17.60;;;;;;;6.67;61.92;100555.04;109373;1254;71449;-59
2024/01/25 04:22:03;;;;;;;29.00;17.20;;;;;;;6.68;61.97;100557.83;109317;1254;60207;-61
2024/01/25 04:24:30;;;;;;;28.70;17.50;;;;;;;6.72;62.06;100556.27;109381;1252;59106;-59
2024/01/25 04:26:59;;;;;;;27.50;16.70;;;;;;;6.74;61.99;100563.27;109352;1252;72641;-59
2024/01/25 04:29:27;;;;;;;30.60;17.60;;;;;;;6.75;62.01;100558.73;109406;1254;71260;-60
2024/01/25 04:31:54;;;;;;;26.30;17.50;;;;;;;6.75;62.04;100580.70;109075;1252;71584;-60
2024/01/25 04:34:22;;;;;;;25.10;17.00;;;;;;;6.74;62.15;100585.23;109053;1253;58517;-60
2024/01/25 04:36:50;;;;;;;27.00;17.20;;;;;;;6.75;62.19;100594.48;109348;1254;58243;-57
2024/01/25 04:39:17;;;;;;;26.80;17.30;;;;;;;6.76;62.32;100588.02;109178;1253;73910;-58
2024/01/25 04:41:45;;;;;;;26.30;16.20;;;;;;;6.78;62.28;100577.92;109361;1254;72854;-57
2024/01/25 04:44:13;;;;;;;25.90;17.30;;;;;;;6.77;62.25;100562.59;109072;1254;72766;-56
2024/01/25 04:46:42;;;;;;;27.90;16.60;;;;;;;6.79;62.37;100549.86;109348;1254;58228;-56
2024/01/25 04:49:09;;;;;;;24.20;15.70;;;;;;;6.80;62.43;100546.21;109356;1253;60082;-55
2024/01/25 04:51:37;;;;;;;24.30;16.10;;;;;;;6.82;62.52;100549.88;109347;1253;73942;-55
2024/01/25 04:54:07;;;;;;;24.50;15.50;;;;;;;6.82;62.61;100559.11;109159;1254;72729;-55
2024/01/25 04:56:34;;;;;;;23.70;16.20;;;;;;;6.83;62.63;100570.98;109361;1253;71537;-56
2024/01/25 04:59:02;;;;;;;27.80;16.60;;;;;;;6.85;62.77;100565.92;109027;1254;60155;-55
2024/01/25 05:01:30;;;;;;;24.50;16.60;;;;;;;6.87;62.79;100558.27;109086;1253;58831;-56
2024/01/25 05:03:57;;;;;;;25.20;16.20;;;;;;;6.88;62.71;100554.43;109407;1254;72627;-57
2024/01/25 05:06:25;;;;;;;29.60;16.90;;;;;;;6.88;62.57;100560.17;109433;1254;73006;-57
2024/01/25 05:08:53;;;;;;;28.00;17.10;;;;;;;6.89;62.54;100561.23;109312;1254;71442;-56
2024/01/25 05:11:20;;;;;;;26.50;16.80;;;;;;;6.88;62.41;100568.04;109337;1254;58703;-56
2024/01/25 05:13:48;;;;;;;28.00;18.30;;;;;;;6.88;62.30;100571.16;109304;1254;59096;-56
2024/01/25 05:16:16;;;;;;;25.60;16.40;;;;;;;6.86;62.26;100565.41;109103;1254;74034;-57
2024/01/25 05:18:43;;;;;;;28.10;17.50;;;;;;;6.86;62.18;100558.44;109381;1253;71877;-59
2024/01/25 05:21:11;;;;;;;25.00;17.20;;;;;;;6.86;62.04;100551.46;109191;1254;71445;-56
2024/01/25 05:23:39;;;;;;;24.70;16.20;;;;;;;6.90;62.87;100556.70;109306;1254;59344;-57
2024/01/25 05:26:07;;;;;;;30.40;17.30;;;;;;;6.99;63.31;100561.45;109123;1253;58815;-57
2024/01/25 05:28:34;;;;;;;26.60;18.50;;;;;;;7.04;63.22;100553.10;109382;1253;73917;-61
2024/01/25 05:31:02;;;;;;;25.00;17.20;;;;;;;7.06;63.02;100553.63;109338;1254;72839;-57
2024/01/25 05:33:32;;;;;;;28.00;18.00;;;;;;;7.07;62.75;100549.62;109303;1254;71425;-62
2024/01/25 05:36:01;;;;;;;27.30;17.80;;;;;;;7.11;62.35;100546.84;109019;1254;60106;-64
2024/01/25 05:38:29;;;;;;;27.50;18.20;;;;;;;7.14;62.05;100545.10;109413;1254;60186;-66
2024/01/25 05:40:56;;;;;;;26.80;17.90;;;;;;;7.15;61.86;100538.47;109399;1253;72610;-62
2024/01/25 05:43:25;;;;;;;27.20;17.90;;;;;;;7.14;61.51;100533.25;109097;1254;72811;-63
2024/01/25 05:45:53;;;;;;;30.00;18.30;;;;;;;7.11;61.39;100534.80;109341;1252;72960;-66
2024/01/25 05:48:20;;;;;;;28.90;19.00;;;;;;;7.08;61.40;100530.79;109369;1252;58376;-67
2024/01/25 05:50:49;;;;;;;30.20;18.60;;;;;;;7.07;61.63;100526.08;109144;1257;61849;-66
2024/01/25 05:53:19;;;;;;;31.20;18.90;;;;;;;7.11;61.69;100523.30;109425;1252;72695;-65
2024/01/25 05:55:47;;;;;;;25.90;18.40;;;;;;;7.12;61.29;100523.82;109383;1254;71629;-67
2024/01/25 05:58:14;;;;;;;27.40;18.50;;;;;;;7.10;61.19;100522.24;109369;1253;72363;-63
2024/01/25 06:00:42;;;;;;;28.20;19.70;;;;;;;7.09;60.83;100525.39;109360;1254;59320;-62
2024/01/25 06:03:10;;;;;;;30.70;19.80;;;;;;;7.05;60.80;100519.27;109489;1253;58968;-67
2024/01/25 06:05:38;;;;;;;30.00;19.10;;;;;;;7.03;60.70;100520.30;109100;1258;73876;-59
2024/01/25 06:08:06;;;;;;;32.20;19.20;;;;;;;7.03;60.60;100516.65;109412;1253;72812;-64
2024/01/25 06:10:34;;;;;;;29.10;18.30;;;;;;;7.01;60.47;100511.77;109233;1253;72728;-68
2024/01/25 06:13:02;;;;;;;30.70;19.00;;;;;;;7.00;60.42;100518.03;109284;1253;59307;-71
2024/01/25 06:15:31;;;;;;;31.90;19.40;;;;;;;6.98;60.34;100520.98;108993;1254;58988;-71
2024/01/25 06:17:59;;;;;;;31.40;18.60;;;;;;;6.95;60.25;100515.58;109304;1253;73922;-72
2024/01/25 06:20:26;;;;;;;30.10;19.30;;;;;;;6.91;60.33;100519.23;109365;1254;72212;-68
2024/01/25 06:22:54;;;;;;;28.80;18.80;;;;;;;6.90;60.39;100519.57;109337;1253;72687;-65
2024/01/25 06:25:22;;;;;;;31.50;19.90;;;;;;;6.90;60.41;100516.44;109320;1254;58564;-64
2024/01/25 06:27:50;;;;;;;27.90;18.40;;;;;;;6.89;60.47;100518.16;109367;1253;58833;-64
2024/01/25 06:30:19;;;;;;;31.70;19.70;;;;;;;6.91;60.41;100519.73;109493;1253;72709;-64
2024/01/25 06:32:47;;;;;;;31.90;20.00;;;;;;;6.90;60.29;100516.95;109369;1254;71338;-64
2024/01/25 06:35:15;;;;;;;32.30;20.40;;;;;;;6.89;60.40;100516.60;109362;1253;71720;-62
2024/01/25 06:37:44;;;;;;;30.00;19.30;;;;;;;6.89;60.48;100510.15;109367;1253;58242;-66
2024/01/25 06:40:11;;;;;;;32.80;21.80;;;;;;;6.90;60.51;100506.14;109375;1253;60490;-65
2024/01/25 06:42:39;;;;;;;35.00;23.30;;;;;;;6.92;60.48;100505.10;109346;1254;71999;-65
2024/01/25 06:45:07;;;;;;;34.80;24.70;;;;;;;6.95;60.32;100504.94;109115;1254;71646;-62
2024/01/25 06:47:34;;;;;;;31.90;21.60;;;;;;;6.96;60.12;100502.50;109395;1253;72650;-64
2024/01/25 06:50:04;;;;;;;33.30;22.00;;;;;;;7.00;60.09;100500.06;109067;1253;59267;-67
2024/01/25 06:52:33;;;;;;;29.10;19.60;;;;;;;7.04;59.90;100495.71;109193;1253;60068;-65
2024/01/25 06:55:00;;;;;;;30.10;19.60;;;;;;;7.09;59.70;100492.59;109237;1254;72969;-64
2024/01/25 06:57:28;;;;;;;29.50;19.40;;;;;;;7.09;59.69;100487.01;109405;1253;71256;-62
2024/01/25 06:59:56;;;;;;;25.60;18.20;;;;;;;7.10;59.76;100483.70;109393;1254;72657;-65
2024/01/25 07:02:26;;;;;;;25.40;17.40;;;;;;;7.14;59.73;100484.92;109375;1254;59370;-63
2024/01/25 07:04:54;;;;;;;26.70;17.10;;;;;;;7.20;59.54;100482.67;109113;1253;58600;-63
2024/01/25 07:07:23;;;;;;;26.50;17.00;;;;;;;7.27;59.40;100483.38;109411;1254;73914;-66
2024/01/25 07:09:50;;;;;;;26.60;17.40;;;;;;;7.33;59.24;100482.51;109365;1253;74469;-65
2024/01/25 07:12:18;;;;;;;23.40;16.40;;;;;;;7.40;58.96;100475.36;109110;1253;71470;-65
2024/01/25 07:14:46;;;;;;;26.30;16.20;;;;;;;7.48;58.72;100475.20;109341;1252;59504;-66
2024/01/25 07:17:14;;;;;;;22.60;15.60;;;;;;;7.49;58.49;100475.36;109255;1253;60924;-65
2024/01/25 07:19:41;;;;;;;26.30;16.50;;;;;;;7.49;58.43;100470.65;109363;1253;73337;-54
2024/01/25 07:22:12;;;;;;;25.50;15.80;;;;;;;7.50;58.39;100474.14;109324;1253;71517;-56
2024/01/25 07:24:40;;;;;;;23.60;15.80;;;;;;;7.52;58.37;100469.60;109283;1253;72505;-57
2024/01/25 07:27:08;;;;;;;25.40;15.40;;;;;;;7.55;58.20;100475.88;109070;1253;58258;-58
2024/01/25 07:29:36;;;;;;;22.30;14.80;;;;;;;7.59;58.08;100473.80;109230;1254;61663;-56
2024/01/25 07:32:04;;;;;;;25.00;16.10;;;;;;;7.64;57.88;100482.69;109348;1252;73653;-56
2024/01/25 07:34:32;;;;;;;23.80;15.90;;;;;;;7.68;57.74;100471.16;109064;1253;73079;-55
2024/01/25 07:36:59;;;;;;;22.50;14.90;;;;;;;7.70;57.66;100469.77;109276;1253;73640;-55
2024/01/25 07:39:27;;;;;;;26.10;16.20;;;;;;;7.71;57.55;100471.70;109020;1253;60169;-54
2024/01/25 07:41:55;;;;;;;23.20;15.40;;;;;;;7.75;57.59;100473.95;109238;1253;58898;-56
2024/01/25 07:44:22;;;;;;;23.20;15.10;;;;;;;7.77;57.55;100473.27;109303;1254;73710;-55
2024/01/25 07:46:50;;;;;;;21.60;14.40;;;;;;;7.79;57.49;100476.23;109274;1254;73261;-54
2024/01/25 07:49:18;;;;;;;21.30;14.80;;;;;;;7.85;57.40;100472.39;108991;1254;71457;-55
2024/01/25 07:51:46;;;;;;;22.50;14.20;;;;;;;7.89;57.21;100474.98;109269;1254;59049;-54
2024/01/25 07:54:14;;;;;;;20.80;13.80;;;;;;;7.92;57.20;100472.54;109224;1252;59932;-54
2024/01/25 07:56:42;;;;;;;20.20;13.70;;;;;;;7.96;57.18;100477.43;109287;1253;72304;-56
2024/01/25 07:59:09;;;;;;;21.40;13.80;;;;;;;8.01;57.24;100475.51;109138;1254;71801;-53
2024/01/25 08:01:37;;;;;;;19.70;12.90;;;;;;;8.02;57.33;100481.09;109224;1254;72701;-54
2024/01/25 08:04:05;;;;;;;23.00;14.60;;;;;;;8.04;57.38;100479.69;109193;1253;59595;-55
2024/01/25 08:06:33;;;;;;;18.90;13.30;;;;;;;8.08;57.47;100472.16;109263;1253;59005;-57
2024/01/25 08:09:00;;;;;;;21.50;13.00;;;;;;;8.10;57.62;100477.23;109261;1253;72753;-55
2024/01/25 08:11:28;;;;;;;21.00;12.40;;;;;;;8.11;57.59;100473.03;109230;1254;72905;-54
2024/01/25 08:13:55;;;;;;;17.80;11.80;;;;;;;8.11;57.66;100474.09;109248;1253;72833;-55
2024/01/25 08:16:23;;;;;;;17.00;11.30;;;;;;;8.13;57.84;100478.80;108993;1256;59618;-55
2024/01/25 08:18:51;;;;;;;17.70;11.40;;;;;;;8.15;57.85;100470.23;109005;1253;60918;-57
2024/01/25 08:21:19;;;;;;;15.80;10.50;;;;;;;8.18;58.04;100464.10;109218;1253;73890;-58
2024/01/25 08:23:47;;;;;;;15.80;11.20;;;;;;;8.19;58.15;100471.27;109011;1254;71505;-59
2024/01/25 08:26:14;;;;;;;14.00;10.10;;;;;;;8.20;58.54;100468.98;109221;1253;72728;-60
2024/01/25 08:28:44;;;;;;;16.00;10.20;;;;;;;8.25;58.92;100468.10;109231;1254;59310;-60
2024/01/25 08:31:12;;;;;;;13.20;9.30;;;;;;;8.28;59.07;100460.92;109277;1254;60142;-58
2024/01/25 08:33:47;;;;;;;12.90;8.20;;;;;;;8.32;59.23;100458.30;109241;1254;75889;-55
2024/01/25 08:36:18;;;;;;;13.10;7.80;;;;;;;8.35;59.46;100459.86;109294;1254;73225;-57
2024/01/25 08:38:46;;;;;;;11.60;7.40;;;;;;;8.38;60.53;100464.21;109375;1253;73241;-57
2024/01/25 08:41:15;;;;;;;12.20;7.30;;;;;;;8.38;60.72;100462.30;109224;1254;58474;-58
2024/01/25 08:43:43;;;;;;;9.20;7.10;;;;;;;8.36;60.49;100471.39;109278;1253;60098;-56
2024/01/25 08:46:13;;;;;;;10.50;6.20;;;;;;;8.33;60.36;100464.39;109249;1253;72630;-57
2024/01/25 08:48:41;;;;;;;11.40;6.90;;;;;;;8.30;60.37;100468.27;109301;1254;75044;-61
2024/01/25 08:51:09;;;;;;;9.50;6.80;;;;;;;8.29;60.40;100461.80;109255;1256;72748;-59
2024/01/25 08:53:37;;;;;;;11.30;7.10;;;;;;;8.27;60.40;100472.98;109258;1253;61264;-59
2024/01/25 08:56:05;;;;;;;9.90;6.70;;;;;;;8.26;60.31;100470.55;109301;1253;59499;-60
2024/01/25 08:58:33;;;;;;;10.00;7.10;;;;;;;8.23;60.20;100465.66;109300;1253;73273;-60
2024/01/25 09:01:00;;;;;;;9.30;6.50;;;;;;;8.20;60.33;100461.81;109276;1253;73382;-53
2024/01/25 09:03:29;;;;;;;11.30;7.10;;;;;;;8.20;60.26;100459.55;109214;1254;71899;-58
2024/01/25 09:05:57;;;;;;;8.20;6.60;;;;;;;8.18;60.24;100451.16;108877;1254;59316;-59
2024/01/25 09:08:25;;;;;;;9.60;6.40;;;;;;;8.18;60.38;100453.45;109286;1253;58555;-58
2024/01/25 09:10:53;;;;;;;9.90;6.50;;;;;;;8.20;60.60;100445.23;109300;1254;72993;-60
2024/01/25 09:13:21;;;;;;;10.00;6.00;;;;;;;8.25;60.71;100446.79;109144;1253;74031;-59
2024/01/25 09:15:50;;;;;;;7.20;5.40;;;;;;;8.33;60.82;100449.73;109006;1253;72852;-60
2024/01/25 09:18:19;;;;;;;7.10;4.80;;;;;;;8.44;60.96;100444.11;109013;1253;62552;-60
2024/01/25 09:20:48;;;;;;;7.90;5.40;;;;;;;8.53;60.81;100454.58;109059;1253;62195;-64
2024/01/25 09:23:16;;;;;;;7.00;4.50;;;;;;;8.57;60.67;100441.96;109004;1253;76828;-53
2024/01/25 09:25:47;;;;;;;7.40;5.10;;;;;;;8.62;60.72;100445.09;109055;1254;72738;-54
2024/01/25 09:28:17;;;;;;;6.90;4.50;;;;;;;8.67;60.69;100426.00;109073;1253;71467;-55
2024/01/25 09:30:44;;;;;;;6.50;4.50;;;;;;;8.70;60.62;100438.93;109029;1256;58952;-51
2024/01/25 09:33:12;;;;;;;7.30;4.20;;;;;;;8.69;60.55;100436.48;109033;1254;58906;-53
2024/01/25 09:35:40;;;;;;;6.90;4.70;;;;;;;8.67;60.73;100429.33;108965;1254;74694;-53
2024/01/25 09:38:08;;;;;;;7.70;4.50;;;;;;;8.66;60.78;100430.74;109208;1254;75791;-53
2024/01/25 09:40:36;;;;;;;8.40;5.20;;;;;;;8.66;60.69;100441.05;108916;1253;70890;-54
2024/01/25 09:43:05;;;;;;;8.30;4.70;;;;;;;8.64;60.64;100431.27;109076;1253;63355;-53
2024/01/25 09:45:32;;;;;;;7.60;5.10;;;;;;;8.63;60.65;100428.48;109040;1253;59703;-52
2024/01/25 09:48:04;;;;;;;8.20;5.30;;;;;;;8.65;60.70;100423.40;108970;1254;75945;-54
2024/01/25 09:50:33;;;;;;;;;;;;;;;8.70;60.78;100420.39;109083;1253;74792;-53
2024/01/25 09:53:02;;;;;;;8.40;4.70;;;;;;;8.76;60.60;100418.62;109173;1254;74467;-54
2024/01/25 09:55:29;;;;;;;8.50;5.60;;;;;;;8.80;60.53;100419.99;108952;1253;59771;-55
2024/01/25 09:57:58;;;;;;;7.00;5.10;;;;;;;8.85;60.46;100415.76;109017;1253;58417;-54
2024/01/25 10:00:25;;;;;;;13.80;5.70;;;;;;;8.90;60.39;100416.42;109039;1254;72505;-50
2024/01/25 10:02:56;;;;;;;11.60;5.70;;;;;;;8.97;60.35;100404.84;109274;1253;74680;-55
2024/01/25 10:05:26;;;;;;;8.00;5.90;;;;;;;9.07;60.31;100405.82;108934;1253;73612;-51
2024/01/25 10:07:55;;;;;;;10.40;6.10;;;;;;;9.17;60.15;100392.61;108981;1253;61509;-53
2024/01/25 10:10:23;;;;;;;7.60;5.20;;;;;;;9.23;60.02;100396.42;109085;1252;58616;-53
2024/01/25 10:12:51;;;;;;;8.80;5.70;;;;;;;9.29;59.89;100389.37;109185;1253;75971;-54
2024/01/25 10:15:19;;;;;;;8.30;5.00;;;;;;;9.31;59.61;100383.23;109111;1254;75361;-53
2024/01/25 10:17:48;;;;;;;9.20;5.00;;;;;;;9.33;59.53;100386.17;109081;1253;73252;-53
2024/01/25 10:20:35;;;;;;;12.00;4.90;;;;;;;9.35;59.51;100382.31;108990;1256;59230;-53
2024/01/25 10:23:03;;;;;;;5.60;4.50;;;;;;;9.37;59.25;100379.83;108878;1261;58714;-54
2024/01/25 10:25:36;;;;;;;8.20;4.60;;;;;;;9.39;59.15;100375.97;109023;1253;76230;-55
2024/01/25 10:28:07;;;;;;;6.30;4.50;;;;;;;9.39;59.32;100383.50;108977;1254;73007;-55
2024/01/25 10:30:36;;;;;;;7.80;4.60;;;;;;;9.38;59.24;100377.02;109091;1254;72212;-53
2024/01/25 10:33:04;;;;;;;7.40;5.10;;;;;;;9.39;59.19;100371.42;108948;1254;60271;-55
2024/01/25 10:35:32;;;;;;;6.30;4.60;;;;;;;9.42;59.17;100367.89;109178;1254;59839;-54
2024/01/25 10:38:00;;;;;;;7.30;4.80;;;;;;;9.42;59.20;100365.10;108902;1254;75045;-55
2024/01/25 10:40:29;;;;;;;7.10;4.80;;;;;;;9.42;59.25;100367.02;109011;1254;74061;-53
2024/01/25 10:42:57;;;;;;;5.80;3.90;;;;;;;9.46;59.84;100350.52;108962;1254;72225;-53
2024/01/25 10:45:26;;;;;;;6.10;4.00;;;;;;;9.53;60.52;100352.39;108989;1254;60765;-53
2024/01/25 10:47:54;;;;;;;7.20;3.80;;;;;;;9.58;60.47;100351.46;108930;1253;62029;-53
2024/01/25 10:50:24;;;;;;;6.10;4.00;;;;;;;9.61;60.28;100358.59;108935;1254;75079;-53
2024/01/25 10:52:54;;;;;;;4.80;3.60;;;;;;;9.61;59.99;100352.30;109135;1253;75462;-53
2024/01/25 10:55:22;;;;;;;4.40;2.70;;;;;;;9.59;59.85;100348.83;108998;1252;74464;-54
2024/01/25 10:57:52;;;;;;;6.00;3.40;;;;;;;9.60;59.72;100349.33;109134;1254;58861;-55
2024/01/25 11:00:20;;;;;;;4.90;2.90;;;;;;;9.59;59.64;100350.05;109193;1253;60592;-53
2024/01/25 11:02:50;;;;;;;5.10;3.20;;;;;;;9.58;59.50;100343.23;108944;1252;76281;-54
2024/01/25 11:05:20;;;;;;;5.10;3.30;;;;;;;9.58;59.53;100347.06;108991;1259;72472;-54
2024/01/25 11:07:50;;;;;;;4.60;2.80;;;;;;;9.58;59.44;100353.02;109027;1253;72804;-55
2024/01/25 11:10:20;;;;;;;6.90;2.40;;;;;;;9.54;59.28;100351.51;109012;1252;59773;-52
2024/01/25 11:12:59;;;;;;;5.40;2.40;;;;;;;9.50;59.46;100360.29;108733;1256;61038;-51
2024/01/25 11:15:32;;;;;;;3.00;1.80;;;;;;;9.46;59.45;100363.66;108742;1257;73647;-54